Time;durP1;ratioP1;P1;durP2;ratioP2;P2;SDS_P1;SDS_P2;PMS_P1;PMS_P2;Temp;Humidity;BMP_temperature;BMP_pressure;BME280_temperature;BME280_humidity;BME280_pressure;Samples;Min_cycle;Max_cycle;Signal;HPM_P1;HPM_P2
2021/03/22 00:00:42;;;;;;;37.33;5.97;;;4.30;99.90;;;;;;5118954;27;20051;-54
2021/03/22 00:03:09;;;;;;;32.85;4.45;;;4.30;99.90;;;;;;5124979;27;20118;-55
2021/03/22 00:05:35;;;;;;;35.13;5.95;;;4.30;99.90;;;;;;5125756;27;20067;-54
2021/03/22 00:08:01;;;;;;;18.85;5.72;;;4.30;99.90;;;;;;5126821;27;20031;-55
2021/03/22 00:10:29;;;;;;;31.23;4.07;;;4.30;99.90;;;;;;5082044;27;20485;-57
2021/03/22 00:12:56;;;;;;;27.30;3.75;;;4.30;99.90;;;;;;5143390;27;20027;-57
2021/03/22 00:15:24;;;;;;;26.25;5.07;;;4.30;99.90;;;;;;5119661;27;20508;-56
2021/03/22 00:17:51;;;;;;;26.58;4.53;;;4.20;99.90;;;;;;5129201;27;20578;-57
2021/03/22 00:20:18;;;;;;;25.48;3.90;;;4.20;99.90;;;;;;5121292;27;20031;-54
2021/03/22 00:22:44;;;;;;;26.58;3.90;;;4.10;99.90;;;;;;5111215;27;20031;-55
2021/03/22 00:25:10;;;;;;;35.28;4.47;;;4.10;99.90;;;;;;5124820;27;20080;-55
2021/03/22 00:27:36;;;;;;;35.83;4.85;;;4.10;99.90;;;;;;5129804;27;20445;-52
2021/03/22 00:30:06;;;;;;;20.73;4.05;;;4.10;99.90;;;;;;5126035;27;20015;-54
2021/03/22 00:32:32;;;;;;;27.20;4.40;;;4.10;99.90;;;;;;5122107;27;20036;-53
2021/03/22 00:34:58;;;;;;;28.42;3.95;;;4.10;99.90;;;;;;5127908;27;20752;-55
2021/03/22 00:37:23;;;;;;;24.20;3.67;;;4.20;99.90;;;;;;5130699;27;20436;-56
2021/03/22 00:39:49;;;;;;;24.70;3.63;;;4.20;99.90;;;;;;5118772;27;20026;-57
2021/03/22 00:42:14;;;;;;;21.55;4.13;;;4.20;99.90;;;;;;5133683;27;20031;-58
2021/03/22 00:44:40;;;;;;;27.27;4.10;;;4.20;99.90;;;;;;5113276;27;20747;-58
2021/03/22 00:47:06;;;;;;;30.85;5.13;;;4.20;99.90;;;;;;5124279;27;20020;-57
2021/03/22 00:49:32;;;;;;;33.00;4.30;;;4.10;99.90;;;;;;5129484;27;20019;-58
2021/03/22 00:51:57;;;;;;;32.95;6.20;;;4.00;99.90;;;;;;5125659;27;20053;-57
2021/03/22 00:54:23;;;;;;;24.55;4.03;;;4.00;99.90;;;;;;5126562;27;20027;-56
2021/03/22 00:56:49;;;;;;;31.23;4.28;;;4.00;99.90;;;;;;5121771;27;20563;-53
2021/03/22 00:59:16;;;;;;;23.08;4.00;;;4.00;99.90;;;;;;5132968;27;20581;-55
2021/03/22 01:01:42;;;;;;;29.60;4.13;;;4.00;99.90;;;;;;5114980;27;20031;-57
2021/03/22 01:04:07;;;;;;;27.38;5.63;;;4.10;99.90;;;;;;5124835;27;20571;-55
2021/03/22 01:06:33;;;;;;;32.80;4.68;;;4.00;99.90;;;;;;5124943;27;20018;-55
2021/03/22 01:08:59;;;;;;;25.73;3.80;;;4.00;99.90;;;;;;5124980;27;20020;-54
2021/03/22 01:11:24;;;;;;;28.95;5.88;;;4.00;99.90;;;;;;5083896;27;20496;-55
2021/03/22 01:13:51;;;;;;;20.58;3.97;;;3.90;99.90;;;;;;5130378;27;20114;-54
2021/03/22 01:16:21;;;;;;;32.63;4.80;;;3.90;99.90;;;;;;5120531;27;20031;-53
2021/03/22 01:18:49;;;;;;;33.95;4.68;;;3.90;99.90;;;;;;5111327;28;20511;-53
2021/03/22 01:21:32;;;;;;;34.00;4.60;;;3.90;99.90;;;;;;5120284;27;20452;-55
2021/03/22 01:23:59;;;;;;;28.98;5.22;;;3.90;99.90;;;;;;5133776;27;20034;-55
2021/03/22 01:26:28;;;;;;;31.92;5.18;;;3.90;99.90;;;;;;5119006;27;20438;-58
2021/03/22 01:28:54;;;;;;;29.02;4.45;;;3.90;99.90;;;;;;5106318;27;20109;-55
2021/03/22 01:31:20;;;;;;;24.55;5.13;;;3.90;99.90;;;;;;5120876;28;20026;-55
2021/03/22 01:33:50;;;;;;;45.42;6.15;;;4.00;99.90;;;;;;5125407;27;20450;-56
2021/03/22 01:36:19;;;;;;;22.63;4.10;;;4.00;99.90;;;;;;5116988;27;20024;-57
2021/03/22 01:38:45;;;;;;;20.75;5.07;;;4.00;99.90;;;;;;5129084;27;20034;-55
2021/03/22 01:41:26;;;;;;;24.02;4.00;;;4.00;99.90;;;;;;5127872;27;20023;-56
2021/03/22 01:44:10;;;;;;;22.35;4.00;;;4.10;99.90;;;;;;5124220;28;20026;-55
2021/03/22 01:46:37;;;;;;;26.98;4.72;;;4.00;99.90;;;;;;5107583;27;20023;-55
2021/03/22 01:49:05;;;;;;;21.75;3.67;;;4.10;99.90;;;;;;5125366;28;20019;-53
2021/03/22 01:51:33;;;;;;;32.55;4.47;;;4.10;99.90;;;;;;5125485;27;20545;-54
2021/03/22 01:53:59;;;;;;;20.70;4.57;;;4.10;99.90;;;;;;5131905;27;20038;-56
2021/03/22 01:56:25;;;;;;;23.75;3.83;;;4.10;99.90;;;;;;5126969;27;20048;-55
2021/03/22 01:58:52;;;;;;;23.70;4.00;;;4.10;99.90;;;;;;5111092;27;20028;-53
2021/03/22 02:01:20;;;;;;;31.08;4.18;;;4.10;99.90;;;;;;5125321;27;20035;-56
2021/03/22 02:03:47;;;;;;;23.65;4.25;;;4.10;99.90;;;;;;5123902;27;20046;-57
2021/03/22 02:06:13;;;;;;;24.08;4.18;;;4.10;99.90;;;;;;5121413;27;20027;-58
2021/03/22 02:08:41;;;;;;;25.23;4.28;;;4.10;99.90;;;;;;5121698;27;20574;-58
2021/03/22 02:11:17;;;;;;;30.33;4.10;;;4.10;99.90;;;;;;5099266;27;20043;-56
2021/03/22 02:13:43;;;;;;;30.85;3.83;;;4.10;99.90;;;;;;5131077;27;20027;-55
2021/03/22 02:16:22;;;;;;;32.53;4.28;;;4.10;99.90;;;;;;5110563;27;20027;-56
2021/03/22 02:19:15;;;;;;;24.23;4.15;;;4.10;99.90;;;;;;5125059;27;20107;-57
2021/03/22 02:22:14;;;;;;;29.95;3.97;;;4.10;99.90;;;;;;5113822;27;20395;-55
2021/03/22 02:24:42;;;;;;;29.02;5.95;;;4.00;99.90;;;;;;5132486;27;20590;-55
2021/03/22 02:27:38;;;;;;;22.00;3.88;;;4.10;99.90;;;;;;5128688;27;20434;-54
2021/03/22 02:30:34;;;;;;;20.00;4.18;;;4.00;99.90;;;;;;5124134;27;20027;-56
2021/03/22 02:33:37;;;;;;;26.38;3.92;;;4.00;99.90;;;;;;5140081;27;20064;-57
2021/03/22 02:36:15;;;;;;;19.45;4.57;;;4.00;99.90;;;;;;5134331;27;20031;-54
2021/03/22 02:38:56;;;;;;;21.75;3.40;;;4.00;99.90;;;;;;5137895;27;20027;-55
2021/03/22 02:41:31;;;;;;;22.48;6.28;;;4.10;99.90;;;;;;5132061;27;20074;-59
2021/03/22 02:44:05;;;;;;;31.90;5.32;;;4.20;99.90;;;;;;5127325;27;20031;-55
2021/03/22 02:46:31;;;;;;;;;;;4.10;99.90;;;;;;5131299;27;20019;-55
2021/03/22 02:48:56;;;;;;;30.88;3.63;;;4.10;99.90;;;;;;5134679;27;20424;-59
2021/03/22 02:51:43;;;;;;;31.65;3.40;;;4.20;99.90;;;;;;5135405;27;20500;-53
2021/03/22 02:54:43;;;;;;;30.48;4.22;;;4.10;99.90;;;;;;5127525;27;20023;-57
2021/03/22 02:57:17;;;;;;;28.67;4.72;;;4.10;99.90;;;;;;5132545;27;20429;-54
2021/03/22 02:59:53;;;;;;;16.35;2.92;;;4.10;99.90;;;;;;5119872;27;20099;-53
2021/03/22 03:02:19;;;;;;;29.40;4.40;;;4.10;99.90;;;;;;5118610;27;20038;-57
2021/03/22 03:04:45;;;;;;;26.40;4.13;;;4.10;99.90;;;;;;5131221;27;20019;-58
2021/03/22 03:07:19;;;;;;;32.97;4.68;;;4.10;99.90;;;;;;5144041;27;20031;-57
2021/03/22 03:09:45;;;;;;;;;;;4.10;99.90;;;;;;5124676;27;20026;-53
2021/03/22 03:12:24;;;;;;;26.75;3.30;;;4.10;99.90;;;;;;5106357;27;20291;-54
2021/03/22 03:14:53;;;;;;;41.88;3.90;;;4.10;99.90;;;;;;5136585;27;20018;-55
2021/03/22 03:17:19;;;;;;;34.67;4.07;;;4.00;99.90;;;;;;5124292;27;20035;-58
2021/03/22 03:19:45;;;;;;;28.60;3.70;;;4.00;99.90;;;;;;5130817;27;20053;-55
2021/03/22 03:22:11;;;;;;;27.80;4.43;;;4.00;99.90;;;;;;5116880;27;20118;-57
2021/03/22 03:24:38;;;;;;;28.80;4.30;;;4.00;99.90;;;;;;5127007;27;20106;-54
2021/03/22 03:27:04;;;;;;;26.40;3.50;;;4.00;99.90;;;;;;5128078;27;20020;-60
2021/03/22 03:29:30;;;;;;;24.05;3.90;;;4.00;99.90;;;;;;5114169;27;21536;-56
2021/03/22 03:31:55;;;;;;;29.00;3.72;;;4.00;99.90;;;;;;5127286;27;20031;-57
2021/03/22 03:34:22;;;;;;;34.85;5.78;;;4.00;99.90;;;;;;5114573;27;20031;-54
2021/03/22 03:36:47;;;;;;;27.50;5.15;;;4.00;99.90;;;;;;5132100;27;20472;-56
2021/03/22 03:39:13;;;;;;;29.55;7.35;;;4.00;99.90;;;;;;5114271;27;20041;-56
2021/03/22 03:41:40;;;;;;;28.23;5.97;;;3.90;99.90;;;;;;5121535;27;20035;-55
2021/03/22 03:44:07;;;;;;;28.77;6.07;;;4.00;99.90;;;;;;5126496;27;20701;-53
2021/03/22 03:46:33;;;;;;;42.33;7.15;;;3.90;99.90;;;;;;5131483;27;20019;-55
2021/03/22 03:48:59;;;;;;;35.10;8.70;;;3.90;99.90;;;;;;5138130;27;20107;-56
2021/03/22 03:51:25;;;;;;;43.03;10.68;;;3.90;99.90;;;;;;5117369;27;20047;-57
2021/03/22 03:53:50;;;;;;;32.90;7.18;;;3.90;99.90;;;;;;5130761;27;20027;-54
2021/03/22 03:56:16;;;;;;;31.13;7.20;;;3.90;99.90;;;;;;5121938;27;20480;-58
2021/03/22 03:58:41;;;;;;;37.92;7.25;;;4.00;99.90;;;;;;5127945;27;20484;-57
2021/03/22 04:01:07;;;;;;;37.38;8.57;;;4.00;99.90;;;;;;5117050;27;20500;-53
2021/03/22 04:03:37;;;;;;;42.35;7.65;;;4.00;99.90;;;;;;5129002;27;20049;-57
2021/03/22 04:06:17;;;;;;;43.78;8.57;;;4.00;99.90;;;;;;5128679;27;20067;-57
2021/03/22 04:08:48;;;;;;;39.72;6.60;;;3.90;99.90;;;;;;5125039;27;20084;-53
2021/03/22 04:11:18;;;;;;;29.23;7.75;;;4.00;99.90;;;;;;5093064;27;20052;-54
2021/03/22 04:13:44;;;;;;;39.35;8.27;;;4.00;99.90;;;;;;5131007;27;20083;-55
2021/03/22 04:16:12;;;;;;;40.58;9.05;;;3.90;99.90;;;;;;5118386;27;20023;-55
2021/03/22 04:18:38;;;;;;;36.30;9.43;;;4.00;99.90;;;;;;5126846;27;20046;-57
2021/03/22 04:21:06;;;;;;;35.53;9.25;;;4.00;99.90;;;;;;5129125;27;20040;-57
2021/03/22 04:23:33;;;;;;;39.75;10.27;;;4.00;99.90;;;;;;5133828;27;20040;-55
2021/03/22 04:25:59;;;;;;;41.85;10.18;;;4.10;99.90;;;;;;5127001;27;20528;-56
2021/03/22 04:28:25;;;;;;;33.60;9.55;;;4.00;99.90;;;;;;5131421;27;20047;-56
2021/03/22 04:30:50;;;;;;;36.97;10.93;;;4.00;99.90;;;;;;5132960;27;20066;-57
2021/03/22 04:33:16;;;;;;;42.53;12.00;;;4.00;99.90;;;;;;5122027;27;20046;-56
2021/03/22 04:35:41;;;;;;;37.83;13.57;;;4.00;99.90;;;;;;5130261;27;20091;-59
2021/03/22 04:38:07;;;;;;;45.58;11.48;;;3.90;99.90;;;;;;5127485;27;20491;-55
2021/03/22 04:40:33;;;;;;;43.55;13.45;;;3.90;99.90;;;;;;5129509;27;20115;-56
2021/03/22 04:42:58;;;;;;;40.55;11.75;;;3.80;99.90;;;;;;5124114;27;20047;-56
2021/03/22 04:45:27;;;;;;;44.05;12.02;;;3.80;99.90;;;;;;5128257;27;20025;-58
2021/03/22 04:47:53;;;;;;;43.10;13.82;;;3.70;99.90;;;;;;5123134;27;20043;-57
2021/03/22 04:50:22;;;;;;;56.03;13.00;;;3.60;99.90;;;;;;5127482;27;20054;-58
2021/03/22 04:52:47;;;;;;;43.17;13.32;;;3.50;99.90;;;;;;5133243;27;20023;-56
2021/03/22 04:55:13;;;;;;;43.45;12.15;;;3.50;99.90;;;;;;5128317;27;20438;-56
2021/03/22 04:57:39;;;;;;;37.25;11.57;;;3.50;99.90;;;;;;5136225;27;20031;-56
2021/03/22 05:00:08;;;;;;;56.42;13.27;;;3.50;99.90;;;;;;5126019;27;20027;-55
2021/03/22 05:02:33;;;;;;;38.17;12.75;;;3.50;99.90;;;;;;5131643;27;20552;-57
2021/03/22 05:04:59;;;;;;;37.50;13.00;;;3.50;99.90;;;;;;5127881;27;20101;-55
2021/03/22 05:07:25;;;;;;;51.10;14.18;;;3.50;99.90;;;;;;5125539;27;20015;-57
2021/03/22 05:09:50;;;;;;;50.30;14.27;;;3.40;99.90;;;;;;5121305;27;20027;-57
2021/03/22 05:12:16;;;;;;;67.65;17.13;;;3.40;99.90;;;;;;5106578;27;20054;-58
2021/03/22 05:14:41;;;;;;;50.75;14.15;;;3.40;99.90;;;;;;5113106;27;20031;-57
2021/03/22 05:17:08;;;;;;;39.42;15.55;;;3.40;99.90;;;;;;5119931;27;20039;-55
2021/03/22 05:19:34;;;;;;;44.47;14.73;;;3.40;99.90;;;;;;5129952;27;20088;-56
2021/03/22 05:22:00;;;;;;;42.75;14.63;;;3.40;99.90;;;;;;5117111;27;20039;-55
2021/03/22 05:24:26;;;;;;;42.08;15.05;;;3.50;99.90;;;;;;5133135;27;20026;-57
2021/03/22 05:26:53;;;;;;;50.63;15.20;;;3.50;99.90;;;;;;5132172;27;20444;-53
2021/03/22 05:29:21;;;;;;;54.13;16.42;;;3.50;99.90;;;;;;5131511;27;20392;-58
2021/03/22 05:31:46;;;;;;;45.38;15.57;;;3.50;99.90;;;;;;5109130;27;20036;-55
2021/03/22 05:34:12;;;;;;;49.17;15.43;;;3.50;99.90;;;;;;5124117;27;20085;-55
2021/03/22 05:36:38;;;;;;;50.28;16.20;;;3.50;99.90;;;;;;5122059;27;20064;-52
2021/03/22 05:39:04;;;;;;;48.38;16.13;;;3.50;99.90;;;;;;5136578;27;20077;-57
2021/03/22 05:41:35;;;;;;;48.10;16.77;;;3.60;99.90;;;;;;5121847;27;20070;-57
2021/03/22 05:44:18;;;;;;;51.78;16.48;;;3.60;99.90;;;;;;5117324;27;20831;-58
2021/03/22 05:46:44;;;;;;;50.78;18.00;;;3.60;99.90;;;;;;5117369;27;20031;-56
2021/03/22 05:49:12;;;;;;;50.95;18.23;;;3.70;99.90;;;;;;5117772;27;20030;-53
2021/03/22 05:51:40;;;;;;;46.42;18.55;;;3.70;99.90;;;;;;5124771;27;20055;-53
2021/03/22 05:54:12;;;;;;;41.53;17.85;;;3.70;99.90;;;;;;5125215;27;20063;-55
2021/03/22 05:57:14;;;;;;;50.85;19.23;;;3.70;99.90;;;;;;5118494;27;20028;-53
2021/03/22 06:00:01;;;;;;;51.80;18.70;;;3.70;99.90;;;;;;5129754;27;20035;-58
2021/03/22 06:02:53;;;;;;;45.90;18.50;;;3.70;99.90;;;;;;5126598;27;20055;-58
2021/03/22 06:05:39;;;;;;;51.05;19.65;;;3.80;99.90;;;;;;5137453;27;20687;-58
2021/03/22 06:08:17;;;;;;;56.33;20.52;;;3.80;99.90;;;;;;5128981;27;20012;-58
2021/03/22 06:10:49;;;;;;;62.60;21.42;;;3.80;99.90;;;;;;5127843;27;20013;-58
2021/03/22 06:13:16;;;;;;;42.05;18.35;;;3.80;99.90;;;;;;5119685;27;20055;-54
2021/03/22 06:15:54;;;;;;;49.15;19.52;;;3.90;99.90;;;;;;5129778;27;20027;-58
2021/03/22 06:18:20;;;;;;;61.25;21.50;;;3.90;99.90;;;;;;5115658;27;20053;-56
2021/03/22 06:20:46;;;;;;;48.30;19.60;;;3.90;99.90;;;;;;5130284;27;20023;-56
2021/03/22 06:23:31;;;;;;;57.40;20.98;;;3.90;99.90;;;;;;5133606;27;20039;-58
2021/03/22 06:25:57;;;;;;;43.13;19.25;;;3.90;99.90;;;;;;5123420;27;20070;-56
2021/03/22 06:28:28;;;;;;;49.20;19.73;;;4.00;99.90;;;;;;5134525;27;20020;-57
2021/03/22 06:31:14;;;;;;;49.35;19.85;;;4.00;99.90;;;;;;5132572;27;20037;-56
2021/03/22 06:33:46;;;;;;;54.85;19.58;;;4.00;99.90;;;;;;5139036;27;20031;-54
2021/03/22 06:36:18;;;;;;;53.05;19.02;;;4.10;99.90;;;;;;5117647;27;20059;-56
2021/03/22 06:38:51;;;;;;;59.40;20.13;;;4.30;99.90;;;;;;5128438;27;20528;-56
2021/03/22 06:41:36;;;;;;;51.00;19.50;;;4.40;99.90;;;;;;5120866;27;20020;-55
2021/03/22 06:44:15;;;;;;;46.28;18.58;;;4.50;99.90;;;;;;5133715;27;20023;-54
2021/03/22 06:47:12;;;;;;;53.35;21.42;;;4.50;99.90;;;;;;5137160;27;20025;-59
2021/03/22 06:49:43;;;;;;;47.17;20.15;;;4.50;99.90;;;;;;5127445;27;20834;-56
2021/03/22 06:52:39;;;;;;;44.30;18.73;;;4.50;99.90;;;;;;5123103;27;20152;-54
2021/03/22 06:55:34;;;;;;;45.30;19.52;;;4.60;99.90;;;;;;5123461;27;20058;-53
2021/03/22 06:58:00;;;;;;;45.97;19.83;;;4.60;99.90;;;;;;5119353;27;20031;-56
2021/03/22 07:00:34;;;;;;;47.80;18.52;;;4.70;99.90;;;;;;5116920;27;20034;-58
2021/03/22 07:03:01;;;;;;;52.15;17.83;;;4.70;99.90;;;;;;5128081;27;20083;-55
2021/03/22 07:05:38;;;;;;;42.92;16.30;;;4.70;99.90;;;;;;5126473;27;20038;-57
2021/03/22 07:08:05;;;;;;;40.17;16.77;;;4.80;99.90;;;;;;5126678;27;20020;-56
2021/03/22 07:10:36;;;;;;;35.17;16.55;;;4.90;99.90;;;;;;5123684;27;20046;-55
2021/03/22 07:13:22;;;;;;;41.10;16.10;;;5.00;99.90;;;;;;5113358;27;20053;-53
2021/03/22 07:15:52;;;;;;;34.92;15.95;;;5.20;99.90;;;;;;5123318;27;20088;-54
2021/03/22 07:18:24;;;;;;;42.22;16.70;;;5.00;99.90;;;;;;5121226;27;20039;-55
2021/03/22 07:21:02;;;;;;;37.53;16.80;;;5.00;99.90;;;;;;5134550;27;20023;-59
2021/03/22 07:23:45;;;;;;;40.13;15.68;;;5.10;99.90;;;;;;5122295;27;20032;-54
2021/03/22 07:26:34;;;;;;;54.67;18.77;;;5.00;99.90;;;;;;5126141;27;20098;-55
2021/03/22 07:29:37;;;;;;;36.75;15.57;;;5.00;99.90;;;;;;5135154;27;20038;-57
2021/03/22 07:32:19;;;;;;;42.80;16.90;;;5.10;99.90;;;;;;5122498;27;20062;-54
2021/03/22 07:34:54;;;;;;;50.30;16.48;;;5.20;99.90;;;;;;5097788;27;20042;-54
2021/03/22 07:37:19;;;;;;;33.05;15.65;;;5.50;99.90;;;;;;5127402;27;20427;-54
2021/03/22 07:40:06;;;;;;;32.28;16.73;;;5.80;99.90;;;;;;5131405;27;20077;-54
2021/03/22 07:42:56;;;;;;;33.20;14.30;;;6.00;99.90;;;;;;5121231;27;20019;-58
2021/03/22 07:45:43;;;;;;;34.80;14.35;;;6.10;99.90;;;;;;5090055;27;20626;-56
2021/03/22 07:48:47;;;;;;;43.70;16.15;;;5.80;99.90;;;;;;5124616;27;20021;-57
2021/03/22 07:51:50;;;;;;;38.28;14.32;;;5.70;99.90;;;;;;5108658;27;20031;-58
2021/03/22 07:54:44;;;;;;;44.00;16.60;;;5.70;99.90;;;;;;5122804;27;20488;-55
2021/03/22 07:57:31;;;;;;;42.88;15.82;;;5.50;99.90;;;;;;5124024;27;20061;-57
2021/03/22 08:00:42;;;;;;;46.40;17.95;;;5.40;99.90;;;;;;5121578;27;20127;-56
2021/03/22 08:03:45;;;;;;;41.00;16.40;;;5.30;99.90;;;;;;5118047;27;20051;-58
2021/03/22 08:06:26;;;;;;;38.13;14.00;;;5.20;99.90;;;;;;5101974;27;20027;-57
2021/03/22 08:08:54;;;;;;;38.90;15.20;;;5.20;99.90;;;;;;5123980;27;20019;-55
2021/03/22 08:11:22;;;;;;;42.47;15.75;;;5.10;99.90;;;;;;5090206;27;20057;-58
2021/03/22 08:14:05;;;;;;;41.75;15.15;;;5.00;99.90;;;;;;5116995;27;20496;-59
2021/03/22 08:16:55;;;;;;;44.55;15.25;;;5.10;99.90;;;;;;5120269;27;20160;-57
2021/03/22 08:19:26;;;;;;;40.95;14.05;;;5.00;99.90;;;;;;5120109;27;20035;-56
2021/03/22 08:22:29;;;;;;;35.40;14.13;;;5.10;99.90;;;;;;5112823;27;20737;-52
2021/03/22 08:25:01;;;;;;;34.20;13.00;;;5.20;99.90;;;;;;5118847;27;20019;-56
2021/03/22 08:27:34;;;;;;;29.45;13.55;;;5.30;99.90;;;;;;5108480;27;20015;-54
2021/03/22 08:30:35;;;;;;;28.23;11.43;;;5.60;99.90;;;;;;5123141;27;20126;-53
2021/03/22 08:33:18;;;;;;;22.08;10.23;;;5.60;99.90;;;;;;5115190;27;20058;-59
2021/03/22 08:36:02;;;;;;;21.75;8.45;;;5.70;99.90;;;;;;5123273;27;20421;-57
2021/03/22 08:38:45;;;;;;;16.42;7.72;;;5.70;99.90;;;;;;5115718;27;20076;-56
2021/03/22 08:41:30;;;;;;;20.80;7.95;;;5.80;99.90;;;;;;5117014;27;20088;-58
2021/03/22 08:44:02;;;;;;;23.58;7.75;;;5.90;99.90;;;;;;5118936;27;20084;-55
2021/03/22 08:46:50;;;;;;;20.50;7.63;;;6.00;99.90;;;;;;5121054;27;20023;-58
2021/03/22 08:49:34;;;;;;;18.40;6.30;;;6.00;99.90;;;;;;5115444;27;20027;-57
2021/03/22 08:52:02;;;;;;;19.98;7.07;;;5.80;99.90;;;;;;5128284;27;20161;-55
2021/03/22 08:54:32;;;;;;;15.02;5.93;;;5.70;99.90;;;;;;5119887;27;20081;-55
2021/03/22 08:57:24;;;;;;;22.88;6.35;;;5.80;99.90;;;;;;5124456;27;20045;-53
2021/03/22 09:00:07;;;;;;;18.00;4.70;;;5.90;99.90;;;;;;5121110;27;20007;-59
2021/03/22 09:02:33;;;;;;;14.35;4.70;;;5.80;99.90;;;;;;5124424;27;20110;-59
2021/03/22 09:05:17;;;;;;;22.45;7.22;;;5.70;99.90;;;;;;5129588;27;20077;-56
2021/03/22 09:07:42;;;;;;;12.75;5.15;;;5.70;99.90;;;;;;5127363;27;20023;-57
2021/03/22 09:10:24;;;;;;;20.10;5.13;;;5.60;99.90;;;;;;5130798;27;20646;-55
2021/03/22 09:12:50;;;;;;;12.88;5.28;;;5.80;99.90;;;;;;5091463;27;20049;-56
2021/03/22 09:15:38;;;;;;;17.30;4.90;;;5.80;99.90;;;;;;5123416;27;20388;-54
2021/03/22 09:18:04;;;;;;;11.48;4.55;;;5.80;99.90;;;;;;5123243;27;20026;-56
2021/03/22 09:20:29;;;;;;;11.10;4.72;;;5.80;99.90;;;;;;5128665;27;20022;-56
2021/03/22 09:23:16;;;;;;;16.15;5.88;;;5.80;99.90;;;;;;5117588;27;20521;-54
2021/03/22 09:25:48;;;;;;;17.70;6.70;;;5.70;99.90;;;;;;5131905;27;20027;-55
2021/03/22 09:28:21;;;;;;;14.18;6.07;;;5.80;99.90;;;;;;5135788;27;20023;-56
2021/03/22 09:30:58;;;;;;;16.77;5.90;;;5.70;99.90;;;;;;5118842;27;20105;-58
2021/03/22 09:34:02;;;;;;;13.93;6.75;;;5.70;99.90;;;;;;5130631;27;20023;-57
2021/03/22 09:36:33;;;;;;;20.75;6.45;;;5.60;99.90;;;;;;5125299;27;20040;-55
2021/03/22 09:39:02;;;;;;;16.05;7.10;;;5.80;99.90;;;;;;5131956;27;20391;-58
2021/03/22 09:41:55;;;;;;;12.02;5.55;;;6.00;99.90;;;;;;5126119;27;20028;-58
2021/03/22 09:44:25;;;;;;;16.25;5.97;;;6.10;99.90;;;;;;5128008;27;20031;-59
2021/03/22 09:47:17;;;;;;;14.75;6.50;;;6.20;99.90;;;;;;5127402;27;20055;-57
2021/03/22 09:49:57;;;;;;;11.68;6.72;;;6.30;99.90;;;;;;5124739;27;20990;-56
2021/03/22 09:52:29;;;;;;;12.77;7.63;;;6.30;99.90;;;;;;5122844;27;20027;-59
2021/03/22 09:54:56;;;;;;;18.67;7.65;;;6.30;99.90;;;;;;5127699;27;20030;-55
2021/03/22 09:57:36;;;;;;;18.77;7.38;;;6.30;99.90;;;;;;5134533;27;20019;-56
2021/03/22 10:00:19;;;;;;;11.98;6.40;;;6.40;99.90;;;;;;5120901;27;20035;-56
2021/03/22 10:02:54;;;;;;;20.45;8.25;;;6.50;99.90;;;;;;5120927;27;20023;-56
2021/03/22 10:05:25;;;;;;;14.00;7.50;;;6.50;99.90;;;;;;5114789;27;20047;-56
2021/03/22 10:08:22;;;;;;;19.20;7.93;;;6.30;99.90;;;;;;5129816;27;20027;-55
2021/03/22 10:10:57;;;;;;;21.77;7.63;;;6.40;99.90;;;;;;5117153;27;20059;-57
2021/03/22 10:13:43;;;;;;;18.80;7.35;;;6.40;99.90;;;;;;5094573;27;20027;-59
2021/03/22 10:16:17;;;;;;;18.50;7.97;;;6.30;99.90;;;;;;5118920;27;20031;-57
2021/03/22 10:18:53;;;;;;;13.82;6.75;;;6.30;99.90;;;;;;5127983;27;20365;-55
2021/03/22 10:21:30;;;;;;;11.55;6.95;;;6.30;99.90;;;;;;5117675;27;20107;-56
2021/03/22 10:23:59;;;;;;;14.55;6.10;;;6.40;99.90;;;;;;5125215;27;20023;-55
2021/03/22 10:26:35;;;;;;;14.02;7.10;;;6.20;99.90;;;;;;5134234;27;20042;-57
2021/03/22 10:29:20;;;;;;;16.17;5.90;;;6.30;99.90;;;;;;5137227;27;20019;-58
2021/03/22 10:31:49;;;;;;;14.18;5.82;;;6.40;99.90;;;;;;5137611;27;20030;-59
2021/03/22 10:34:42;;;;;;;20.38;5.45;;;6.50;99.90;;;;;;5123611;27;20042;-57
2021/03/22 10:37:21;;;;;;;10.70;5.35;;;6.60;99.90;;;;;;5121333;27;20051;-56
2021/03/22 10:39:48;;;;;;;12.43;5.13;;;6.70;99.90;;;;;;5118128;27;20062;-60
2021/03/22 10:42:41;;;;;;;13.88;6.05;;;6.80;99.90;;;;;;5137342;27;20039;-55
2021/03/22 10:45:16;;;;;;;9.55;5.57;;;6.70;99.90;;;;;;5127965;27;20042;-54
2021/03/22 10:47:41;;;;;;;14.77;7.22;;;6.80;99.90;;;;;;5130407;27;20601;-56
2021/03/22 10:50:20;;;;;;;11.25;5.88;;;6.90;99.90;;;;;;5130223;27;20027;-58
2021/03/22 10:53:17;;;;;;;12.48;6.15;;;6.90;99.90;;;;;;5127312;27;20032;-55
2021/03/22 10:55:45;;;;;;;11.85;5.57;;;6.90;99.90;;;;;;5116378;27;20412;-56
2021/03/22 10:58:33;;;;;;;10.25;5.43;;;7.10;99.90;;;;;;5120949;27;20673;-55
2021/03/22 11:01:01;;;;;;;9.52;5.30;;;7.20;99.90;;;;;;5121406;27;20037;-63
2021/03/22 11:03:30;;;;;;;13.32;5.53;;;7.40;99.90;;;;;;5130274;27;20042;-56
2021/03/22 11:05:57;;;;;;;8.32;4.82;;;7.50;99.90;;;;;;5134995;27;20015;-54
2021/03/22 11:08:37;;;;;;;7.95;4.30;;;7.60;99.90;;;;;;5127858;27;20106;-58
2021/03/22 11:11:07;;;;;;;6.60;3.78;;;7.70;99.90;;;;;;5118025;27;20043;-58
2021/03/22 11:13:36;;;;;;;5.82;3.92;;;7.50;99.90;;;;;;5106296;27;20054;-56
2021/03/22 11:16:04;;;;;;;8.02;4.05;;;7.40;99.90;;;;;;5124511;27;20083;-57
2021/03/22 11:18:31;;;;;;;7.45;4.05;;;7.50;99.90;;;;;;5126326;27;20508;-58
2021/03/22 11:20:58;;;;;;;7.57;4.35;;;7.20;99.90;;;;;;5125156;27;20541;-57
2021/03/22 11:23:41;;;;;;;9.35;4.43;;;7.40;99.90;;;;;;5117618;27;20420;-56
2021/03/22 11:26:20;;;;;;;10.73;4.50;;;7.40;99.90;;;;;;5119214;27;20183;-55
2021/03/22 11:28:46;;;;;;;9.70;3.63;;;7.70;99.90;;;;;;5118152;27;20068;-57
2021/03/22 11:31:28;;;;;;;7.35;4.45;;;7.90;99.90;;;;;;5122592;27;20044;-58
2021/03/22 11:34:01;;;;;;;6.55;3.88;;;8.00;99.90;;;;;;5128076;27;20019;-55
2021/03/22 11:36:42;;;;;;;10.80;4.35;;;8.00;99.90;;;;;;5126502;27;20795;-57
2021/03/22 11:39:16;;;;;;;9.10;4.32;;;7.90;99.90;;;;;;5101276;27;20040;-58
2021/03/22 11:41:54;;;;;;;7.07;4.32;;;7.70;99.90;;;;;;5119137;27;20615;-56
2021/03/22 11:44:25;;;;;;;7.85;4.18;;;7.50;99.90;;;;;;5124974;27;20114;-56
2021/03/22 11:47:15;;;;;;;8.57;4.72;;;7.50;99.90;;;;;;5110982;27;20511;-55
2021/03/22 11:49:45;;;;;;;7.80;4.07;;;7.60;99.90;;;;;;5124726;27;20023;-55
2021/03/22 11:52:31;;;;;;;5.75;3.90;;;7.60;99.90;;;;;;5119265;27;20560;-57
2021/03/22 11:54:58;;;;;;;8.02;4.30;;;7.70;99.90;;;;;;5124685;27;20042;-56
2021/03/22 11:57:51;;;;;;;6.97;3.72;;;7.80;99.90;;;;;;5126215;27;20100;-57
2021/03/22 12:00:19;;;;;;;6.03;3.55;;;7.70;99.90;;;;;;5116106;27;20054;-57
2021/03/22 12:02:50;;;;;;;5.88;3.88;;;7.90;99.90;;;;;;5122199;27;20056;-58
2021/03/22 12:05:33;;;;;;;7.10;3.72;;;8.10;99.90;;;;;;5121440;27;20476;-56
2021/03/22 12:07:59;;;;;;;7.78;4.28;;;8.20;99.90;;;;;;5121993;27;20051;-58
2021/03/22 12:10:33;;;;;;;7.10;3.38;;;8.10;99.90;;;;;;5120892;27;20032;-56
2021/03/22 12:13:01;;;;;;;6.50;3.45;;;8.10;99.90;;;;;;5095059;27;20035;-57
2021/03/22 12:15:28;;;;;;;7.72;4.28;;;8.00;99.90;;;;;;5122630;27;20028;-58
2021/03/22 12:18:04;;;;;;;8.73;4.32;;;7.90;99.90;;;;;;5120089;27;20449;-58
2021/03/22 12:20:33;;;;;;;6.43;3.75;;;7.80;99.90;;;;;;5118056;27;20020;-57
2021/03/22 12:22:59;;;;;;;6.50;3.97;;;7.70;99.90;;;;;;5121805;27;20115;-57
2021/03/22 12:25:28;;;;;;;5.43;3.33;;;7.60;99.90;;;;;;5115216;27;20084;-57
2021/03/22 12:27:54;;;;;;;9.70;3.92;;;7.60;99.90;;;;;;5118642;27;20111;-59
2021/03/22 12:30:22;;;;;;;8.82;3.83;;;7.60;99.90;;;;;;5122732;27;20019;-58
2021/03/22 12:32:48;;;;;;;10.57;4.22;;;7.60;99.90;;;;;;5118527;27;20072;-56
2021/03/22 12:35:36;;;;;;;10.07;4.03;;;7.60;99.90;;;;;;5124146;27;20032;-58
2021/03/22 12:38:03;;;;;;;8.10;3.25;;;7.60;99.90;;;;;;5118253;27;20023;-57
2021/03/22 12:40:29;;;;;;;7.93;3.33;;;7.60;99.90;;;;;;5115072;27;20054;-60
2021/03/22 12:42:55;;;;;;;7.88;2.95;;;7.60;99.90;;;;;;5129699;27;20027;-59
2021/03/22 12:45:28;;;;;;;7.25;3.10;;;7.60;99.90;;;;;;5128041;27;20080;-58
2021/03/22 12:47:54;;;;;;;11.48;3.80;;;7.60;99.90;;;;;;5116696;27;20038;-57
2021/03/22 12:50:33;;;;;;;6.80;3.47;;;7.70;99.90;;;;;;5121196;27;20555;-58
2021/03/22 12:53:00;;;;;;;8.98;3.47;;;7.80;99.90;;;;;;5114437;27;20019;-58
2021/03/22 12:55:28;;;;;;;11.48;4.05;;;7.90;99.90;;;;;;5121455;27;20019;-58
2021/03/22 12:57:57;;;;;;;11.13;4.25;;;7.90;99.90;;;;;;5118676;27;20031;-55
2021/03/22 13:00:25;;;;;;;10.65;5.25;;;8.00;99.90;;;;;;5112174;27;20110;-59
2021/03/22 13:02:51;;;;;;;10.55;5.78;;;7.90;99.90;;;;;;5122471;27;20023;-58
2021/03/22 13:05:22;;;;;;;12.32;5.10;;;7.90;99.90;;;;;;5111392;27;20501;-57
2021/03/22 13:07:48;;;;;;;8.70;4.72;;;7.90;99.90;;;;;;5115874;27;20036;-58
2021/03/22 13:10:17;;;;;;;8.52;5.35;;;7.80;99.90;;;;;;5109991;27;20061;-57
2021/03/22 13:12:43;;;;;;;9.77;4.95;;;7.80;99.90;;;;;;5101733;27;20672;-57
2021/03/22 13:15:25;;;;;;;10.02;4.85;;;7.80;99.90;;;;;;5134658;27;20091;-59
2021/03/22 13:17:50;;;;;;;13.00;5.35;;;7.80;99.90;;;;;;5113543;27;20373;-58